sensor_id;sensor_type;location;lat;lon;timestamp;pressure;altitude;pressure_sealevel;temperature;humidity
65151;BME280;51918;51.856;0.150;2023-04-20T00:03:51;101527.75;;;5.54;65.82
65151;BME280;51918;51.856;0.150;2023-04-20T00:09:13;101539.09;;;5.50;66.28
65151;BME280;51918;51.856;0.150;2023-04-20T00:14:19;101519.78;;;5.46;66.94
65151;BME280;51918;51.856;0.150;2023-04-20T00:19:21;101529.81;;;5.49;66.73
65151;BME280;51918;51.856;0.150;2023-04-20T00:24:22;101524.81;;;5.34;68.90
65151;BME280;51918;51.856;0.150;2023-04-20T00:29:34;101521.31;;;5.35;70.29
65151;BME280;51918;51.856;0.150;2023-04-20T00:35:06;101518.38;;;5.42;68.86
65151;BME280;51918;51.856;0.150;2023-04-20T00:40:08;101511.41;;;5.44;68.52
65151;BME280;51918;51.856;0.150;2023-04-20T00:45:09;101508.16;;;5.42;69.31
65151;BME280;51918;51.856;0.150;2023-04-20T00:50:11;101502.66;;;5.35;70.36
65151;BME280;51918;51.856;0.150;2023-04-20T00:55:11;101493.78;;;5.28;70.11
65151;BME280;51918;51.856;0.150;2023-04-20T01:00:13;101497.38;;;5.25;70.87
65151;BME280;51918;51.856;0.150;2023-04-20T01:05:20;101494.69;;;5.27;70.62
65151;BME280;51918;51.856;0.150;2023-04-20T01:10:21;101479.81;;;5.21;70.87
65151;BME280;51918;51.856;0.150;2023-04-20T01:15:30;101480.09;;;5.16;70.94
65151;BME280;51918;51.856;0.150;2023-04-20T01:20:32;101470.84;;;5.15;71.47
65151;BME280;51918;51.856;0.150;2023-04-20T01:26:16;101462.56;;;5.11;71.69
65151;BME280;51918;51.856;0.150;2023-04-20T01:31:17;101459.13;;;5.00;72.08
65151;BME280;51918;51.856;0.150;2023-04-20T01:42:18;101456.16;;;4.93;72.65
65151;BME280;51918;51.856;0.150;2023-04-20T01:47:18;101451.25;;;4.90;72.98
65151;BME280;51918;51.856;0.150;2023-04-20T01:52:25;101448.81;;;4.88;73.57
65151;BME280;51918;51.856;0.150;2023-04-20T01:57:45;101448.09;;;4.86;73.55
65151;BME280;51918;51.856;0.150;2023-04-20T02:02:52;101455.03;;;4.84;74.31
65151;BME280;51918;51.856;0.150;2023-04-20T02:07:58;101449.22;;;4.82;74.65
65151;BME280;51918;51.856;0.150;2023-04-20T02:13:03;101446.66;;;4.82;75.33
65151;BME280;51918;51.856;0.150;2023-04-20T02:18:06;101444.94;;;4.83;77.17
65151;BME280;51918;51.856;0.150;2023-04-20T02:23:27;101447.06;;;4.89;77.35
65151;BME280;51918;51.856;0.150;2023-04-20T02:33:56;101432.91;;;4.85;81.78
65151;BME280;51918;51.856;0.150;2023-04-20T02:38:57;101439.03;;;4.95;83.01
65151;BME280;51918;51.856;0.150;2023-04-20T02:43:58;101433.09;;;5.07;81.26
65151;BME280;51918;51.856;0.150;2023-04-20T02:49:05;101436.75;;;4.90;86.29
65151;BME280;51918;51.856;0.150;2023-04-20T02:54:30;101438.19;;;5.07;83.65
65151;BME280;51918;51.856;0.150;2023-04-20T02:59:32;101433.81;;;5.09;83.97
65151;BME280;51918;51.856;0.150;2023-04-20T03:04:33;101429.31;;;5.13;83.85
65151;BME280;51918;51.856;0.150;2023-04-20T03:09:34;101431.06;;;5.25;82.62
65151;BME280;51918;51.856;0.150;2023-04-20T03:14:58;101439.41;;;5.27;82.85
65151;BME280;51918;51.856;0.150;2023-04-20T03:19:58;101436.34;;;5.22;83.41
65151;BME280;51918;51.856;0.150;2023-04-20T03:25:17;101437.06;;;5.24;82.68
65151;BME280;51918;51.856;0.150;2023-04-20T03:30:19;101438.69;;;5.25;83.04
65151;BME280;51918;51.856;0.150;2023-04-20T03:35:20;101440.94;;;5.30;81.24
65151;BME280;51918;51.856;0.150;2023-04-20T03:45:37;101442.25;;;5.23;82.86
65151;BME280;51918;51.856;0.150;2023-04-20T03:50:50;101447.16;;;5.13;85.67
65151;BME280;51918;51.856;0.150;2023-04-20T03:56:03;101442.25;;;5.23;83.43
65151;BME280;51918;51.856;0.150;2023-04-20T04:01:06;101444.06;;;5.33;81.61
65151;BME280;51918;51.856;0.150;2023-04-20T04:06:07;101442.88;;;5.26;82.11
65151;BME280;51918;51.856;0.150;2023-04-20T04:11:08;101456.75;;;5.22;83.05
65151;BME280;51918;51.856;0.150;2023-04-20T04:16:18;101447.97;;;5.26;81.67
65151;BME280;51918;51.856;0.150;2023-04-20T04:21:18;101459.59;;;5.30;80.76
65151;BME280;51918;51.856;0.150;2023-04-20T04:26:19;101455.72;;;5.25;80.50
65151;BME280;51918;51.856;0.150;2023-04-20T04:31:24;101462.16;;;5.30;79.34
65151;BME280;51918;51.856;0.150;2023-04-20T04:36:41;101453.28;;;5.23;78.18
65151;BME280;51918;51.856;0.150;2023-04-20T04:41:42;101464.63;;;5.19;78.21
65151;BME280;51918;51.856;0.150;2023-04-20T04:52:19;101468.19;;;5.04;77.93
65151;BME280;51918;51.856;0.150;2023-04-20T04:57:19;101469.41;;;4.98;77.61
65151;BME280;51918;51.856;0.150;2023-04-20T05:02:21;101468.06;;;4.92;77.96
65151;BME280;51918;51.856;0.150;2023-04-20T05:07:29;101468.28;;;4.89;77.65
65151;BME280;51918;51.856;0.150;2023-04-20T05:12:29;101469.50;;;4.84;77.53
65151;BME280;51918;51.856;0.150;2023-04-20T05:17:30;101461.25;;;4.80;78.17
65151;BME280;51918;51.856;0.150;2023-04-20T05:22:41;101474.28;;;4.75;77.79
65151;BME280;51918;51.856;0.150;2023-04-20T05:27:42;101467.53;;;4.74;78.66
65151;BME280;51918;51.856;0.150;2023-04-20T05:32:42;101475.41;;;4.71;78.63
65151;BME280;51918;51.856;0.150;2023-04-20T05:37:44;101476.13;;;4.73;79.04
65151;BME280;51918;51.856;0.150;2023-04-20T05:42:45;101472.56;;;4.76;79.23
65151;BME280;51918;51.856;0.150;2023-04-20T05:47:51;101483.34;;;4.80;80.18
65151;BME280;51918;51.856;0.150;2023-04-20T05:52:53;101480.63;;;4.83;80.47
65151;BME280;51918;51.856;0.150;2023-04-20T05:57:54;101474.19;;;4.90;80.47
65151;BME280;51918;51.856;0.150;2023-04-20T06:02:55;101482.16;;;4.98;80.36
65151;BME280;51918;51.856;0.150;2023-04-20T06:07:57;101488.78;;;5.01;81.31
65151;BME280;51918;51.856;0.150;2023-04-20T06:13:00;101488.69;;;5.15;82.17
65151;BME280;51918;51.856;0.150;2023-04-20T06:18:01;101491.16;;;5.29;81.48
65151;BME280;51918;51.856;0.150;2023-04-20T06:23:03;101491.53;;;5.49;82.39
65151;BME280;51918;51.856;0.150;2023-04-20T06:28:04;101496.75;;;5.84;84.00
65151;BME280;51918;51.856;0.150;2023-04-20T06:33:45;101487.88;;;6.38;83.48
65151;BME280;51918;51.856;0.150;2023-04-20T06:38:47;101483.09;;;6.69;81.35
65151;BME280;51918;51.856;0.150;2023-04-20T06:43:48;101488.97;;;6.82;80.00
65151;BME280;51918;51.856;0.150;2023-04-20T06:48:49;101478.88;;;7.03;79.98
65151;BME280;51918;51.856;0.150;2023-04-20T06:54:27;101480.53;;;7.15;79.43
65151;BME280;51918;51.856;0.150;2023-04-20T06:59:36;101480.16;;;7.31;79.48
65151;BME280;51918;51.856;0.150;2023-04-20T07:04:58;101468.63;;;7.71;79.68
65151;BME280;51918;51.856;0.150;2023-04-20T07:10:01;101476.78;;;8.31;78.69
65151;BME280;51918;51.856;0.150;2023-04-20T07:15:01;101480.31;;;9.02;77.49
65151;BME280;51918;51.856;0.150;2023-04-20T07:20:03;101470.75;;;9.85;74.91
65151;BME280;51918;51.856;0.150;2023-04-20T07:25:07;101470.41;;;10.86;71.37
65151;BME280;51918;51.856;0.150;2023-04-20T07:30:09;101464.03;;;12.01;68.08
65151;BME280;51918;51.856;0.150;2023-04-20T07:35:10;101467.34;;;13.07;64.58
65151;BME280;51918;51.856;0.150;2023-04-20T07:40:12;101454.03;;;13.87;58.78
65151;BME280;51918;51.856;0.150;2023-04-20T07:45:13;101444.75;;;14.83;56.69
65151;BME280;51918;51.856;0.150;2023-04-20T07:50:14;101440.50;;;15.61;52.65
65151;BME280;51918;51.856;0.150;2023-04-20T07:55:16;101441.22;;;16.24;50.08
65151;BME280;51918;51.856;0.150;2023-04-20T08:00:17;101437.56;;;17.08;47.53
65151;BME280;51918;51.856;0.150;2023-04-20T08:05:18;101430.31;;;17.03;43.84
65151;BME280;51918;51.856;0.150;2023-04-20T08:10:20;101439.97;;;17.09;41.24
65151;BME280;51918;51.856;0.150;2023-04-20T08:15:21;101426.97;;;17.46;40.77
65151;BME280;51918;51.856;0.150;2023-04-20T08:20:22;101412.56;;;17.86;38.47
65151;BME280;51918;51.856;0.150;2023-04-20T08:25:24;101419.06;;;18.25;38.26
65151;BME280;51918;51.856;0.150;2023-04-20T08:30:25;101403.84;;;19.05;39.00
65151;BME280;51918;51.856;0.150;2023-04-20T08:35:26;101405.91;;;18.68;34.91
65151;BME280;51918;51.856;0.150;2023-04-20T08:40:29;101411.19;;;19.43;36.54
65151;BME280;51918;51.856;0.150;2023-04-20T08:45:29;101405.97;;;20.16;35.61
65151;BME280;51918;51.856;0.150;2023-04-20T08:50:31;101393.75;;;21.20;32.78
65151;BME280;51918;51.856;0.150;2023-04-20T08:55:32;101399.84;;;21.46;33.19
65151;BME280;51918;51.856;0.150;2023-04-20T09:00:33;101381.19;;;21.61;30.38
65151;BME280;51918;51.856;0.150;2023-04-20T09:05:34;101378.78;;;21.59;31.97
65151;BME280;51918;51.856;0.150;2023-04-20T09:10:41;101394.19;;;22.18;30.73
65151;BME280;51918;51.856;0.150;2023-04-20T09:15:42;101377.31;;;22.69;29.74
65151;BME280;51918;51.856;0.150;2023-04-20T09:20:42;101367.88;;;23.52;30.43
65151;BME280;51918;51.856;0.150;2023-04-20T09:25:46;101368.81;;;23.93;29.17
65151;BME280;51918;51.856;0.150;2023-04-20T09:30:49;101351.69;;;24.71;28.42
65151;BME280;51918;51.856;0.150;2023-04-20T09:35:50;101346.88;;;25.26;27.27
65151;BME280;51918;51.856;0.150;2023-04-20T09:40:52;101332.97;;;25.47;26.60
65151;BME280;51918;51.856;0.150;2023-04-20T09:45:54;101317.97;;;25.87;24.87
65151;BME280;51918;51.856;0.150;2023-04-20T09:50:55;101321.59;;;26.25;24.90
65151;BME280;51918;51.856;0.150;2023-04-20T09:55:59;101302.22;;;26.95;27.74
65151;BME280;51918;51.856;0.150;2023-04-20T10:01:00;101297.13;;;27.21;24.32
65151;BME280;51918;51.856;0.150;2023-04-20T10:06:01;101294.84;;;27.77;23.82
65151;BME280;51918;51.856;0.150;2023-04-20T10:11:03;101282.25;;;28.15;23.42
65151;BME280;51918;51.856;0.150;2023-04-20T10:16:05;101278.63;;;28.47;22.33
65151;BME280;51918;51.856;0.150;2023-04-20T10:21:16;101259.56;;;29.01;22.35
65151;BME280;51918;51.856;0.150;2023-04-20T10:26:18;101247.88;;;29.08;22.40
65151;BME280;51918;51.856;0.150;2023-04-20T10:31:20;101244.59;;;29.52;22.20
65151;BME280;51918;51.856;0.150;2023-04-20T10:36:26;101247.06;;;29.93;20.81
65151;BME280;51918;51.856;0.150;2023-04-20T10:41:28;101243.31;;;29.94;20.96
65151;BME280;51918;51.856;0.150;2023-04-20T10:46:28;101228.28;;;29.03;20.09
65151;BME280;51918;51.856;0.150;2023-04-20T10:51:29;101222.16;;;29.23;20.79
65151;BME280;51918;51.856;0.150;2023-04-20T10:56:38;101221.28;;;29.49;19.83
65151;BME280;51918;51.856;0.150;2023-04-20T11:01:40;101201.50;;;29.80;20.69
65151;BME280;51918;51.856;0.150;2023-04-20T11:06:42;101191.69;;;30.20;20.12
65151;BME280;51918;51.856;0.150;2023-04-20T11:11:44;101200.91;;;30.33;19.85
65151;BME280;51918;51.856;0.150;2023-04-20T11:16:50;101190.13;;;30.78;20.64
65151;BME280;51918;51.856;0.150;2023-04-20T11:21:51;101190.59;;;30.85;19.20
65151;BME280;51918;51.856;0.150;2023-04-20T11:26:53;101168.25;;;30.62;18.76
65151;BME280;51918;51.856;0.150;2023-04-20T11:31:54;101151.69;;;30.41;18.36
65151;BME280;51918;51.856;0.150;2023-04-20T11:36:55;101143.75;;;29.67;18.52
65151;BME280;51918;51.856;0.150;2023-04-20T11:41:57;101140.34;;;29.61;18.61
65151;BME280;51918;51.856;0.150;2023-04-20T11:46:59;101122.38;;;29.93;17.81
65151;BME280;51918;51.856;0.150;2023-04-20T11:51:59;101127.00;;;30.40;17.71
65151;BME280;51918;51.856;0.150;2023-04-20T11:57:02;101120.16;;;30.63;16.98
65151;BME280;51918;51.856;0.150;2023-04-20T12:02:02;101111.84;;;30.17;18.24
65151;BME280;51918;51.856;0.150;2023-04-20T12:07:03;101109.94;;;29.83;17.42
65151;BME280;51918;51.856;0.150;2023-04-20T12:12:05;101092.56;;;30.06;19.08
65151;BME280;51918;51.856;0.150;2023-04-20T12:17:06;101091.44;;;30.12;17.26
65151;BME280;51918;51.856;0.150;2023-04-20T12:22:07;101079.25;;;29.32;16.07
65151;BME280;51918;51.856;0.150;2023-04-20T12:27:09;101066.47;;;29.45;17.15
65151;BME280;51918;51.856;0.150;2023-04-20T12:32:10;101068.44;;;29.18;18.02
65151;BME280;51918;51.856;0.150;2023-04-20T12:37:10;101060.66;;;29.37;18.70
65151;BME280;51918;51.856;0.150;2023-04-20T12:42:12;101051.81;;;29.08;16.93
65151;BME280;51918;51.856;0.150;2023-04-20T12:47:13;101058.84;;;29.33;18.14
65151;BME280;51918;51.856;0.150;2023-04-20T12:52:14;101044.84;;;29.22;16.86
65151;BME280;51918;51.856;0.150;2023-04-20T12:57:16;101048.78;;;29.30;17.42
65151;BME280;51918;51.856;0.150;2023-04-20T13:02:16;101057.47;;;28.96;15.92
65151;BME280;51918;51.856;0.150;2023-04-20T13:07:17;101046.56;;;28.97;17.79
65151;BME280;51918;51.856;0.150;2023-04-20T13:12:20;101039.13;;;28.99;17.16
65151;BME280;51918;51.856;0.150;2023-04-20T13:17:20;101039.47;;;28.88;17.27
65151;BME280;51918;51.856;0.150;2023-04-20T13:22:21;101041.34;;;29.32;17.62
65151;BME280;51918;51.856;0.150;2023-04-20T13:27:23;101029.47;;;29.69;18.05
65151;BME280;51918;51.856;0.150;2023-04-20T13:32:24;101024.94;;;30.03;16.78
65151;BME280;51918;51.856;0.150;2023-04-20T13:37:24;101011.94;;;30.26;16.65
65151;BME280;51918;51.856;0.150;2023-04-20T13:42:26;101003.81;;;30.17;15.69
65151;BME280;51918;51.856;0.150;2023-04-20T13:47:27;101006.66;;;29.28;16.55
65151;BME280;51918;51.856;0.150;2023-04-20T13:52:28;100996.94;;;28.58;16.25
65151;BME280;51918;51.856;0.150;2023-04-20T13:57:30;100984.78;;;28.57;18.03
65151;BME280;51918;51.856;0.150;2023-04-20T14:02:31;100975.31;;;28.31;18.22
65151;BME280;51918;51.856;0.150;2023-04-20T14:07:32;100966.94;;;27.88;18.60
65151;BME280;51918;51.856;0.150;2023-04-20T14:12:34;100964.59;;;27.71;18.97
65151;BME280;51918;51.856;0.150;2023-04-20T14:17:34;100949.50;;;27.51;20.20
65151;BME280;51918;51.856;0.150;2023-04-20T14:22:35;100924.06;;;26.88;20.77
65151;BME280;51918;51.856;0.150;2023-04-20T14:27:37;100936.81;;;26.44;20.72
65151;BME280;51918;51.856;0.150;2023-04-20T14:32:39;100940.84;;;26.04;20.51
65151;BME280;51918;51.856;0.150;2023-04-20T14:37:39;100931.34;;;25.33;21.32
65151;BME280;51918;51.856;0.150;2023-04-20T14:42:41;100920.94;;;24.94;22.44
65151;BME280;51918;51.856;0.150;2023-04-20T14:47:42;100911.41;;;24.22;22.23
65151;BME280;51918;51.856;0.150;2023-04-20T14:52:43;100893.88;;;23.88;22.65
65151;BME280;51918;51.856;0.150;2023-04-20T14:57:45;100895.66;;;23.20;23.59
65151;BME280;51918;51.856;0.150;2023-04-20T15:02:45;100887.88;;;22.68;23.93
65151;BME280;51918;51.856;0.150;2023-04-20T15:07:46;100896.25;;;22.29;24.63
65151;BME280;51918;51.856;0.150;2023-04-20T15:12:48;100898.91;;;21.28;25.69
65151;BME280;51918;51.856;0.150;2023-04-20T15:17:48;100900.59;;;20.56;26.80
65151;BME280;51918;51.856;0.150;2023-04-20T15:22:49;100892.69;;;19.50;27.94
65151;BME280;51918;51.856;0.150;2023-04-20T15:27:51;100902.66;;;19.28;28.58
65151;BME280;51918;51.856;0.150;2023-04-20T15:32:52;100887.31;;;18.55;30.06
65151;BME280;51918;51.856;0.150;2023-04-20T15:37:52;100899.56;;;17.41;32.09
65151;BME280;51918;51.856;0.150;2023-04-20T15:42:54;100905.81;;;16.57;34.12
65151;BME280;51918;51.856;0.150;2023-04-20T15:47:55;100911.66;;;16.03;35.82
65151;BME280;51918;51.856;0.150;2023-04-20T15:52:56;100917.00;;;15.58;37.19
65151;BME280;51918;51.856;0.150;2023-04-20T15:57:58;100934.13;;;14.86;40.05
65151;BME280;51918;51.856;0.150;2023-04-20T16:02:59;100933.81;;;14.36;42.56
65151;BME280;51918;51.856;0.150;2023-04-20T16:08:00;100943.22;;;13.68;45.61
65151;BME280;51918;51.856;0.150;2023-04-20T16:13:02;100943.78;;;12.77;49.90
65151;BME280;51918;51.856;0.150;2023-04-20T16:18:02;100941.69;;;12.47;52.76
65151;BME280;51918;51.856;0.150;2023-04-20T16:23:03;100939.91;;;12.81;50.45
65151;BME280;51918;51.856;0.150;2023-04-20T16:28:05;100943.66;;;12.62;51.49
65151;BME280;51918;51.856;0.150;2023-04-20T16:33:06;100954.94;;;12.52;51.29
65151;BME280;51918;51.856;0.150;2023-04-20T16:38:07;100940.91;;;12.63;52.46
65151;BME280;51918;51.856;0.150;2023-04-20T16:43:09;100958.31;;;12.37;53.33
65151;BME280;51918;51.856;0.150;2023-04-20T16:48:09;100950.44;;;12.13;54.57
65151;BME280;51918;51.856;0.150;2023-04-20T16:53:10;100948.47;;;12.24;53.76
65151;BME280;51918;51.856;0.150;2023-04-20T16:58:12;100950.91;;;12.17;54.03
65151;BME280;51918;51.856;0.150;2023-04-20T17:03:13;100959.47;;;12.09;54.96
65151;BME280;51918;51.856;0.150;2023-04-20T17:08:13;100957.84;;;12.08;55.65
65151;BME280;51918;51.856;0.150;2023-04-20T17:13:16;100962.00;;;11.85;56.82
65151;BME280;51918;51.856;0.150;2023-04-20T17:18:16;100952.81;;;11.82;57.08
65151;BME280;51918;51.856;0.150;2023-04-20T17:23:17;100957.31;;;11.72;56.85
65151;BME280;51918;51.856;0.150;2023-04-20T17:28:19;100966.75;;;11.47;57.84
65151;BME280;51918;51.856;0.150;2023-04-20T17:33:20;100948.84;;;11.37;58.51
65151;BME280;51918;51.856;0.150;2023-04-20T17:38:21;100951.91;;;11.41;59.19
65151;BME280;51918;51.856;0.150;2023-04-20T17:43:23;100953.41;;;11.51;59.83
65151;BME280;51918;51.856;0.150;2023-04-20T17:48:24;100952.88;;;11.40;59.77
65151;BME280;51918;51.856;0.150;2023-04-20T17:53:25;100946.41;;;11.36;59.85
65151;BME280;51918;51.856;0.150;2023-04-20T17:58:27;100950.22;;;11.23;60.81
65151;BME280;51918;51.856;0.150;2023-04-20T18:03:27;100946.34;;;11.19;60.13
65151;BME280;51918;51.856;0.150;2023-04-20T18:08:28;100952.53;;;11.00;60.63
65151;BME280;51918;51.856;0.150;2023-04-20T18:13:30;100959.50;;;10.56;62.96
65151;BME280;51918;51.856;0.150;2023-04-20T18:18:31;100965.41;;;10.48;62.86
65151;BME280;51918;51.856;0.150;2023-04-20T18:23:31;100956.91;;;10.29;63.42
65151;BME280;51918;51.856;0.150;2023-04-20T18:28:33;100963.00;;;10.28;62.86
65151;BME280;51918;51.856;0.150;2023-04-20T18:33:34;100956.53;;;10.24;62.42
65151;BME280;51918;51.856;0.150;2023-04-20T18:38:35;100963.84;;;10.11;62.35
65151;BME280;51918;51.856;0.150;2023-04-20T18:43:37;100966.09;;;9.96;62.87
65151;BME280;51918;51.856;0.150;2023-04-20T18:48:38;100969.50;;;9.87;62.58
65151;BME280;51918;51.856;0.150;2023-04-20T18:53:38;100962.22;;;9.82;64.38
65151;BME280;51918;51.856;0.150;2023-04-20T18:58:40;100956.72;;;9.77;64.55
65151;BME280;51918;51.856;0.150;2023-04-20T19:03:41;100961.13;;;9.85;64.82
65151;BME280;51918;51.856;0.150;2023-04-20T19:08:42;100956.59;;;9.79;65.29
65151;BME280;51918;51.856;0.150;2023-04-20T19:13:44;100957.97;;;9.73;65.00
65151;BME280;51918;51.856;0.150;2023-04-20T19:18:44;100944.09;;;9.66;65.45
65151;BME280;51918;51.856;0.150;2023-04-20T19:23:45;100949.38;;;9.64;65.36
65151;BME280;51918;51.856;0.150;2023-04-20T19:28:47;100965.22;;;9.60;65.18
65151;BME280;51918;51.856;0.150;2023-04-20T19:33:47;100964.66;;;9.38;64.89
65151;BME280;51918;51.856;0.150;2023-04-20T19:38:48;100963.53;;;9.13;65.11
65151;BME280;51918;51.856;0.150;2023-04-20T19:43:50;100967.94;;;8.93;66.05
65151;BME280;51918;51.856;0.150;2023-04-20T19:48:51;100955.00;;;8.75;67.02
65151;BME280;51918;51.856;0.150;2023-04-20T19:53:52;100963.16;;;8.61;66.45
65151;BME280;51918;51.856;0.150;2023-04-20T19:58:54;100957.91;;;8.43;67.40
65151;BME280;51918;51.856;0.150;2023-04-20T20:03:54;100965.84;;;8.30;67.59
65151;BME280;51918;51.856;0.150;2023-04-20T20:08:54;100952.50;;;8.07;68.03
65151;BME280;51918;51.856;0.150;2023-04-20T20:13:56;100957.19;;;8.02;67.98
65151;BME280;51918;51.856;0.150;2023-04-20T20:18:57;100943.84;;;7.89;68.19
65151;BME280;51918;51.856;0.150;2023-04-20T20:23:57;100939.41;;;7.81;68.68
65151;BME280;51918;51.856;0.150;2023-04-20T20:28:59;100938.69;;;7.69;68.94
65151;BME280;51918;51.856;0.150;2023-04-20T20:34:00;100935.72;;;7.74;69.03
65151;BME280;51918;51.856;0.150;2023-04-20T20:39:00;100922.78;;;7.56;70.29
65151;BME280;51918;51.856;0.150;2023-04-20T20:44:02;100933.81;;;7.47;70.49
65151;BME280;51918;51.856;0.150;2023-04-20T20:49:03;100925.97;;;7.38;70.85
65151;BME280;51918;51.856;0.150;2023-04-20T20:54:04;100924.78;;;7.42;69.84
65151;BME280;51918;51.856;0.150;2023-04-20T20:59:06;100931.34;;;7.35;69.87
65151;BME280;51918;51.856;0.150;2023-04-20T21:04:07;100935.47;;;7.27;69.99
65151;BME280;51918;51.856;0.150;2023-04-20T21:09:07;100936.16;;;7.19;70.82
65151;BME280;51918;51.856;0.150;2023-04-20T21:14:09;100936.66;;;7.13;71.08
65151;BME280;51918;51.856;0.150;2023-04-20T21:19:10;100926.94;;;7.07;72.88
65151;BME280;51918;51.856;0.150;2023-04-20T21:24:10;100922.50;;;7.09;73.18
65151;BME280;51918;51.856;0.150;2023-04-20T21:29:13;100928.31;;;7.11;74.72
65151;BME280;51918;51.856;0.150;2023-04-20T21:34:13;100924.66;;;7.13;75.57
65151;BME280;51918;51.856;0.150;2023-04-20T21:39:14;100925.41;;;7.25;74.27
65151;BME280;51918;51.856;0.150;2023-04-20T21:44:16;100923.25;;;7.30;75.35
65151;BME280;51918;51.856;0.150;2023-04-20T21:49:16;100911.81;;;7.34;74.80
65151;BME280;51918;51.856;0.150;2023-04-20T21:54:17;100901.19;;;7.39;74.74
65151;BME280;51918;51.856;0.150;2023-04-20T21:59:19;100903.34;;;7.43;75.31
65151;BME280;51918;51.856;0.150;2023-04-20T22:04:19;100904.56;;;7.49;74.50
65151;BME280;51918;51.856;0.150;2023-04-20T22:09:20;100890.69;;;7.52;74.26
65151;BME280;51918;51.856;0.150;2023-04-20T22:14:22;100894.75;;;7.45;74.76
65151;BME280;51918;51.856;0.150;2023-04-20T22:19:25;100892.28;;;7.33;74.89
65151;BME280;51918;51.856;0.150;2023-04-20T22:24:25;100892.81;;;7.27;75.85
65151;BME280;51918;51.856;0.150;2023-04-20T22:29:27;100881.22;;;7.23;76.76
65151;BME280;51918;51.856;0.150;2023-04-20T22:34:28;100871.00;;;7.23;76.23
65151;BME280;51918;51.856;0.150;2023-04-20T22:39:28;100864.75;;;7.16;76.41
65151;BME280;51918;51.856;0.150;2023-04-20T22:44:30;100873.38;;;7.15;76.28
65151;BME280;51918;51.856;0.150;2023-04-20T22:49:31;100865.28;;;7.10;76.74
65151;BME280;51918;51.856;0.150;2023-04-20T22:54:31;100869.72;;;7.08;76.82
65151;BME280;51918;51.856;0.150;2023-04-20T22:59:33;100852.81;;;7.16;77.32
65151;BME280;51918;51.856;0.150;2023-04-20T23:04:35;100866.78;;;7.22;77.80
65151;BME280;51918;51.856;0.150;2023-04-20T23:09:35;100857.13;;;7.26;77.14
65151;BME280;51918;51.856;0.150;2023-04-20T23:14:38;100850.53;;;7.23;77.10
65151;BME280;51918;51.856;0.150;2023-04-20T23:19:39;100851.03;;;7.17;77.16
65151;BME280;51918;51.856;0.150;2023-04-20T23:24:39;100860.94;;;7.00;78.39
65151;BME280;51918;51.856;0.150;2023-04-20T23:29:41;100855.03;;;7.10;77.83
65151;BME280;51918;51.856;0.150;2023-04-20T23:34:42;100842.41;;;7.18;78.81
65151;BME280;51918;51.856;0.150;2023-04-20T23:39:42;100839.72;;;7.19;79.06
65151;BME280;51918;51.856;0.150;2023-04-20T23:44:44;100837.84;;;7.21;78.99
65151;BME280;51918;51.856;0.150;2023-04-20T23:49:45;100833.00;;;7.28;79.00
65151;BME280;51918;51.856;0.150;2023-04-20T23:54:45;100838.69;;;7.32;79.22
65151;BME280;51918;51.856;0.150;2023-04-20T23:59:47;100836.53;;;7.37;79.52
